Time;durP1;ratioP1;P1;durP2;ratioP2;P2;SDS_P1;SDS_P2;PMS_P1;PMS_P2;Temp;Humidity;BMP_temperature;BMP_pressure;BME280_temperature;BME280_humidity;BME280_pressure;Samples;Min_cycle;Max_cycle;Signal;HPM_P1;HPM_P2
2021/08/19 00:00:13;;;;;;;40.08;5.72;;;38.50;37.30;;;;;;5081888;28;20068;-66
2021/08/19 00:02:40;;;;;;;24.60;5.00;;;38.40;37.20;;;;;;5080434;28;20073;-65
2021/08/19 00:05:07;;;;;;;37.95;5.60;;;38.50;37.50;;;;;;5077863;28;20068;-65
2021/08/19 00:07:33;;;;;;;25.35;4.70;;;38.40;37.30;;;;;;5082560;28;20072;-65
2021/08/19 00:10:00;;;;;;;28.55;5.72;;;38.30;37.60;;;;;;5084625;28;20069;-65
2021/08/19 00:12:26;;;;;;;28.95;5.15;;;38.30;38.10;;;;;;5078116;28;20080;-66
2021/08/19 00:14:53;;;;;;;36.28;5.78;;;38.40;37.80;;;;;;5080973;28;20081;-65
2021/08/19 00:17:19;;;;;;;29.58;5.43;;;38.50;37.90;;;;;;5082097;28;20117;-66
2021/08/19 00:19:46;;;;;;;29.60;5.70;;;38.40;37.50;;;;;;5079852;28;20126;-66
2021/08/19 00:22:13;;;;;;;41.25;5.70;;;38.40;38.00;;;;;;5101872;28;20100;-66
2021/08/19 00:24:39;;;;;;;42.55;6.03;;;38.40;38.00;;;;;;5068745;28;20159;-65
2021/08/19 00:27:06;;;;;;;35.85;5.78;;;38.30;38.20;;;;;;5078856;28;20068;-65
2021/08/19 00:29:32;;;;;;;31.58;5.57;;;38.20;38.50;;;;;;5078981;28;20530;-66
2021/08/19 00:32:01;;;;;;;43.20;6.63;;;38.10;38.00;;;;;;5079281;28;20522;-66
2021/08/19 00:34:28;;;;;;;30.77;5.18;;;38.20;38.30;;;;;;5081956;28;20073;-65
2021/08/19 00:36:55;;;;;;;38.17;5.28;;;38.10;38.30;;;;;;5081131;28;20124;-65
2021/08/19 00:39:21;;;;;;;36.05;6.13;;;38.10;38.60;;;;;;5082777;28;20077;-65
2021/08/19 00:41:50;;;;;;;33.80;6.88;;;38.20;39.20;;;;;;5083448;28;20102;-66
2021/08/19 00:44:21;;;;;;;30.63;5.80;;;38.20;38.90;;;;;;5079182;28;20092;-64
2021/08/19 00:46:48;;;;;;;44.58;5.85;;;38.10;38.60;;;;;;5078300;28;20449;-67
2021/08/19 00:49:15;;;;;;;25.50;5.40;;;38.00;39.60;;;;;;5112319;28;20080;-66
2021/08/19 00:51:48;;;;;;;35.38;5.25;;;37.90;39.50;;;;;;5078699;28;20077;-65
2021/08/19 00:54:21;;;;;;;40.63;6.63;;;37.90;39.60;;;;;;5079931;28;20436;-65
2021/08/19 00:56:51;;;;;;;44.47;6.07;;;37.80;39.80;;;;;;5085359;28;20119;-65
2021/08/19 00:59:23;;;;;;;43.65;6.38;;;37.70;40.40;;;;;;5083752;28;20091;-66
2021/08/19 01:01:58;;;;;;;53.45;7.47;;;37.60;40.40;;;;;;5085537;28;21583;-66
2021/08/19 01:04:24;;;;;;;39.20;5.88;;;37.50;40.80;;;;;;5087373;28;20091;-66
2021/08/19 01:06:54;;;;;;;46.67;6.82;;;37.40;40.50;;;;;;5088407;28;20547;-66
2021/08/19 01:09:20;;;;;;;57.08;7.40;;;37.40;40.60;;;;;;5084856;28;20086;-65
2021/08/19 01:11:47;;;;;;;47.30;6.38;;;;;;;;;;5086797;28;20112;-66
2021/08/19 01:14:17;;;;;;;55.28;7.43;;;37.10;51.60;;;;;;5086120;28;20031;-65
2021/08/19 01:16:47;;;;;;;51.05;6.60;;;37.20;41.80;;;;;;5082734;28;20160;-65
2021/08/19 01:19:19;;;;;;;36.50;5.93;;;37.10;56.80;;;;;;5083413;28;20032;-64
2021/08/19 01:21:47;;;;;;;41.80;6.57;;;37.10;41.90;;;;;;5085572;28;20467;-65
2021/08/19 01:24:14;;;;;;;54.05;6.70;;;37.40;83.80;;;;;;5085219;28;20108;-64
2021/08/19 01:26:41;;;;;;;48.05;6.35;;;37.20;46.90;;;;;;5086471;28;20059;-64
2021/08/19 01:29:08;;;;;;;45.38;6.65;;;37.00;41.70;;;;;;5084627;28;20068;-64
2021/08/19 01:31:38;;;;;;;34.85;6.28;;;37.00;42.60;;;;;;5082430;28;20144;-64
2021/08/19 01:34:11;;;;;;;36.22;6.18;;;36.80;48.50;;;;;;5119403;27;20084;-64
2021/08/19 01:36:38;;;;;;;37.17;7.00;;;37.10;87.90;;;;;;5082596;28;20481;-64
2021/08/19 01:39:10;;;;;;;40.65;6.10;;;;;;;;;;5080328;28;20036;-63
2021/08/19 01:41:37;;;;;;;37.92;5.63;;;;;;;;;;5082716;28;20563;-64
2021/08/19 01:44:03;;;;;;;40.45;5.32;;;36.60;45.20;;;;;;5081639;28;20027;-64
2021/08/19 01:46:30;;;;;;;41.72;6.00;;;;;;;;;;5085539;28;20044;-65
2021/08/19 01:48:57;;;;;;;42.35;7.20;;;36.50;41.80;;;;;;5082172;28;20051;-65
2021/08/19 01:51:23;;;;;;;50.47;7.38;;;;;;;;;;5087358;28;20020;-65
2021/08/19 01:53:50;;;;;;;37.28;5.25;;;;;;;;;;5079434;28;20077;-65
2021/08/19 01:56:19;;;;;;;39.95;6.20;;;36.20;60.50;;;;;;5084726;28;20017;-65
2021/08/19 01:58:47;;;;;;;37.05;6.40;;;36.20;43.10;;;;;;5082007;28;20510;-65
2021/08/19 02:01:20;;;;;;;32.22;5.97;;;36.10;43.10;;;;;;5083476;28;20085;-65
2021/08/19 02:03:48;;;;;;;32.17;4.85;;;36.00;43.40;;;;;;5083373;28;20072;-64
2021/08/19 02:06:15;;;;;;;34.38;5.43;;;36.00;44.20;;;;;;5080914;28;20065;-65
2021/08/19 02:08:42;;;;;;;34.00;6.00;;;35.90;43.80;;;;;;5083052;28;20077;-64
2021/08/19 02:11:08;;;;;;;37.35;5.85;;;35.80;43.90;;;;;;5081793;28;20414;-64
2021/08/19 02:13:35;;;;;;;38.45;6.40;;;35.80;44.20;;;;;;5086040;28;20077;-65
2021/08/19 02:16:03;;;;;;;39.75;6.45;;;35.70;44.30;;;;;;5075743;28;20194;-65
2021/08/19 02:18:29;;;;;;;35.38;5.82;;;35.70;44.60;;;;;;5085592;28;20151;-65
2021/08/19 02:20:56;;;;;;;45.72;6.35;;;35.60;45.00;;;;;;5084243;28;20140;-64
2021/08/19 02:23:23;;;;;;;37.38;6.47;;;35.60;45.50;;;;;;5084912;28;20072;-64
2021/08/19 02:25:49;;;;;;;36.17;6.03;;;35.50;45.50;;;;;;5086161;28;20156;-65
2021/08/19 02:28:16;;;;;;;41.10;6.13;;;35.30;71.90;;;;;;5083195;28;20089;-65
2021/08/19 02:30:44;;;;;;;45.30;6.57;;;35.30;73.40;;;;;;5081788;28;20031;-65
2021/08/19 02:33:11;;;;;;;37.80;5.80;;;35.20;46.70;;;;;;5084211;28;20129;-66
2021/08/19 02:35:37;;;;;;;31.90;5.50;;;35.20;47.50;;;;;;5084935;28;20069;-64
2021/08/19 02:38:07;;;;;;;31.40;6.10;;;35.10;47.80;;;;;;5084413;28;20230;-64
2021/08/19 02:40:36;;;;;;;47.42;6.90;;;35.00;48.10;;;;;;5081905;28;20076;-65
2021/08/19 02:43:09;;;;;;;37.97;5.80;;;35.00;48.60;;;;;;5080453;28;20069;-63
2021/08/19 02:45:36;;;;;;;38.78;6.30;;;34.90;49.10;;;;;;5083550;28;20075;-63
2021/08/19 02:48:03;;;;;;;30.10;5.68;;;34.80;49.50;;;;;;5084101;28;20136;-63
2021/08/19 02:50:30;;;;;;;39.03;6.18;;;34.80;49.60;;;;;;5079414;28;20166;-65
2021/08/19 02:52:57;;;;;;;42.05;6.10;;;34.70;49.80;;;;;;5084793;28;20174;-64
2021/08/19 02:55:24;;;;;;;31.13;6.32;;;34.70;50.30;;;;;;5086044;28;20076;-64
2021/08/19 02:57:50;;;;;;;31.92;5.82;;;34.60;50.00;;;;;;5085295;28;20453;-64
2021/08/19 03:00:17;;;;;;;35.10;6.03;;;34.60;49.70;;;;;;5080449;28;20076;-64
2021/08/19 03:02:44;;;;;;;27.42;6.07;;;34.50;49.30;;;;;;5080934;28;20072;-64
2021/08/19 03:05:11;;;;;;;30.58;5.80;;;34.50;49.70;;;;;;5082882;28;20423;-64
2021/08/19 03:07:38;;;;;;;33.08;5.88;;;34.40;49.60;;;;;;5082586;28;20584;-64
2021/08/19 03:10:06;;;;;;;45.30;5.47;;;34.30;49.50;;;;;;5084969;28;20073;-64
2021/08/19 03:12:32;;;;;;;31.00;5.93;;;34.20;50.30;;;;;;5082308;28;20463;-65
2021/08/19 03:14:59;;;;;;;32.97;5.97;;;34.10;50.20;;;;;;5079067;28;20069;-64
2021/08/19 03:17:27;;;;;;;29.52;6.13;;;34.10;50.30;;;;;;5080489;28;20112;-64
2021/08/19 03:19:53;;;;;;;27.67;5.20;;;34.00;50.40;;;;;;5081557;28;20147;-64
2021/08/19 03:22:21;;;;;;;27.45;5.68;;;34.00;50.70;;;;;;5082502;28;20073;-64
2021/08/19 03:24:47;;;;;;;30.52;5.32;;;33.90;50.90;;;;;;5082261;28;20073;-64
2021/08/19 03:27:14;;;;;;;25.92;5.65;;;33.90;50.90;;;;;;5082227;28;20202;-64
2021/08/19 03:29:40;;;;;;;25.90;5.88;;;33.90;51.20;;;;;;5083232;28;20113;-64
2021/08/19 03:32:07;;;;;;;26.30;5.57;;;34.00;50.30;;;;;;5086122;28;20152;-64
2021/08/19 03:34:34;;;;;;;31.90;6.80;;;33.80;50.80;;;;;;5082086;28;20080;-64
2021/08/19 03:37:00;;;;;;;29.05;6.13;;;33.90;51.20;;;;;;5080275;28;20085;-65
2021/08/19 03:39:29;;;;;;;33.13;6.03;;;33.80;50.10;;;;;;5083802;28;20092;-64
2021/08/19 03:41:55;;;;;;;24.27;6.03;;;33.70;52.20;;;;;;5085679;28;20069;-64
2021/08/19 03:44:22;;;;;;;29.63;6.60;;;33.60;52.60;;;;;;5081406;28;20104;-65
2021/08/19 03:46:49;;;;;;;25.90;6.97;;;33.50;52.50;;;;;;5083359;28;20077;-64
2021/08/19 03:49:15;;;;;;;35.92;6.32;;;33.60;52.30;;;;;;5078201;28;20080;-64
2021/08/19 03:51:42;;;;;;;21.58;6.60;;;33.50;47.20;;;;;;5079063;28;20065;-64
2021/08/19 03:54:08;;;;;;;27.00;6.10;;;33.40;43.30;;;;;;5081263;28;20202;-64
2021/08/19 03:56:39;;;;;;;26.73;6.47;;;33.20;42.70;;;;;;5080469;28;20214;-64
2021/08/19 03:59:07;;;;;;;31.50;6.55;;;33.20;42.90;;;;;;5083364;28;20100;-64
2021/08/19 04:01:33;;;;;;;24.25;6.25;;;33.00;43.10;;;;;;5082787;28;20072;-63
2021/08/19 04:04:00;;;;;;;29.10;6.53;;;33.00;43.30;;;;;;5085526;28;20146;-64
2021/08/19 04:06:27;;;;;;;19.45;7.20;;;32.90;43.60;;;;;;5079186;28;20076;-63
2021/08/19 04:08:53;;;;;;;21.23;6.90;;;32.90;43.70;;;;;;5079051;28;20080;-63
2021/08/19 04:11:20;;;;;;;26.13;6.45;;;32.70;44.00;;;;;;5078881;28;20101;-64
2021/08/19 04:13:47;;;;;;;38.05;7.57;;;32.60;44.20;;;;;;5081288;28;20081;-64
2021/08/19 04:16:13;;;;;;;30.00;6.90;;;32.40;44.90;;;;;;5083241;28;20100;-65
2021/08/19 04:18:40;;;;;;;28.52;6.82;;;32.30;45.00;;;;;;5078150;28;20166;-65
2021/08/19 04:21:06;;;;;;;42.67;7.95;;;32.20;45.40;;;;;;5084228;28;20069;-65
2021/08/19 04:23:33;;;;;;;37.25;6.85;;;32.10;46.00;;;;;;5082992;28;20073;-64
2021/08/19 04:25:59;;;;;;;31.50;6.93;;;32.00;46.00;;;;;;5080219;28;20177;-66
2021/08/19 04:28:26;;;;;;;36.88;7.20;;;31.80;46.40;;;;;;5078049;28;20110;-64
2021/08/19 04:30:53;;;;;;;41.28;7.00;;;31.80;46.40;;;;;;5077388;28;20073;-63
2021/08/19 04:33:23;;;;;;;32.58;7.88;;;31.60;47.40;;;;;;5077255;28;20080;-64
2021/08/19 04:35:49;;;;;;;44.03;7.38;;;31.60;47.00;;;;;;5079355;28;20096;-64
2021/08/19 04:38:16;;;;;;;49.22;7.88;;;31.50;47.10;;;;;;5081004;28;20104;-64
2021/08/19 04:40:42;;;;;;;37.25;7.22;;;31.40;47.20;;;;;;5075854;28;20069;-64
2021/08/19 04:43:09;;;;;;;33.72;6.95;;;31.30;47.40;;;;;;5079673;28;20425;-64
2021/08/19 04:45:35;;;;;;;18.40;6.70;;;31.20;47.60;;;;;;5082837;28;20064;-65
2021/08/19 04:48:02;;;;;;;27.20;7.05;;;31.10;47.90;;;;;;5081582;28;20080;-65
2021/08/19 04:50:28;;;;;;;24.08;7.57;;;31.00;47.90;;;;;;5079239;28;20428;-65
2021/08/19 04:52:55;;;;;;;24.65;7.15;;;30.80;48.20;;;;;;5078614;28;20460;-65
2021/08/19 04:55:22;;;;;;;28.90;6.65;;;30.80;48.40;;;;;;5115580;28;20077;-65
2021/08/19 04:57:48;;;;;;;25.33;6.97;;;30.80;48.70;;;;;;5083444;28;20461;-65
2021/08/19 05:00:15;;;;;;;26.08;7.65;;;30.70;48.40;;;;;;5077508;28;20081;-66
2021/08/19 05:02:45;;;;;;;28.92;7.32;;;30.70;48.70;;;;;;5078804;28;20077;-66
2021/08/19 05:05:11;;;;;;;24.08;7.20;;;30.50;49.20;;;;;;5080606;28;20206;-65
2021/08/19 05:07:38;;;;;;;32.80;7.05;;;30.40;49.40;;;;;;5080537;28;20081;-65
2021/08/19 05:10:05;;;;;;;24.60;7.60;;;30.40;49.70;;;;;;5081792;28;20215;-65
2021/08/19 05:12:31;;;;;;;22.40;6.75;;;30.30;50.00;;;;;;5083191;28;20073;-65
2021/08/19 05:14:58;;;;;;;25.02;7.22;;;30.20;50.00;;;;;;5075936;28;20077;-65
2021/08/19 05:17:24;;;;;;;25.13;7.07;;;30.30;50.20;;;;;;5077642;28;20108;-65
2021/08/19 05:19:51;;;;;;;23.55;6.88;;;30.30;50.10;;;;;;5083988;28;20113;-65
2021/08/19 05:22:18;;;;;;;23.50;6.72;;;30.30;50.10;;;;;;5078981;28;20152;-65
2021/08/19 05:24:44;;;;;;;18.98;7.15;;;30.30;50.00;;;;;;5083109;28;20069;-65
2021/08/19 05:27:11;;;;;;;29.00;6.82;;;30.30;50.10;;;;;;5080252;28;20096;-65
2021/08/19 05:29:37;;;;;;;22.10;6.80;;;30.20;49.90;;;;;;5079957;28;20076;-65
2021/08/19 05:32:04;;;;;;;26.52;7.38;;;30.10;50.00;;;;;;5078266;28;20600;-65
2021/08/19 05:34:31;;;;;;;23.58;6.88;;;29.90;50.70;;;;;;5077529;28;20084;-65
2021/08/19 05:36:57;;;;;;;21.55;6.28;;;29.80;50.90;;;;;;5083277;28;20085;-65
2021/08/19 05:39:24;;;;;;;21.27;7.32;;;29.70;51.10;;;;;;5082529;28;20163;-65
2021/08/19 05:41:50;;;;;;;23.02;7.40;;;29.70;82.20;;;;;;5083704;28;20154;-65
2021/08/19 05:44:17;;;;;;;24.08;6.65;;;;;;;;;;5080250;28;20107;-65
2021/08/19 05:46:43;;;;;;;19.40;7.32;;;29.60;79.30;;;;;;5080415;28;20113;-65
2021/08/19 05:49:10;;;;;;;22.00;6.97;;;29.60;51.00;;;;;;5083557;28;20416;-65
2021/08/19 05:51:37;;;;;;;24.05;6.32;;;29.60;51.50;;;;;;5084928;28;20077;-66
2021/08/19 05:54:03;;;;;;;41.58;7.47;;;29.50;51.70;;;;;;5081818;28;20526;-66
2021/08/19 05:56:30;;;;;;;21.00;7.07;;;;;;;;;;5084872;28;20073;-69
2021/08/19 05:58:57;;;;;;;27.20;6.95;;;29.40;75.50;;;;;;5083383;28;20026;-69
2021/08/19 06:01:26;;;;;;;18.67;6.90;;;29.40;52.30;;;;;;5085430;28;20093;-70
2021/08/19 06:03:53;;;;;;;27.88;7.50;;;29.30;52.20;;;;;;5117555;27;20081;-69
2021/08/19 06:06:19;;;;;;;34.42;7.72;;;29.30;52.70;;;;;;5081560;28;21405;-68
2021/08/19 06:08:46;;;;;;;17.48;6.28;;;29.70;65.10;;;;;;5083935;28;20159;-68
2021/08/19 06:11:12;;;;;;;89.15;11.52;;;29.30;52.20;;;;;;5083078;28;20074;-67
2021/08/19 06:13:39;;;;;;;69.60;10.25;;;29.20;52.90;;;;;;5087645;28;20076;-73
2021/08/19 06:16:06;;;;;;;110.35;13.32;;;28.90;52.30;;;;;;5080923;28;20109;-67
2021/08/19 06:18:35;;;;;;;76.97;10.95;;;29.00;77.60;;;;;;5083066;28;20046;-68
2021/08/19 06:21:02;;;;;;;19.45;6.55;;;29.00;65.70;;;;;;5080718;28;20050;-68
2021/08/19 06:23:28;;;;;;;27.50;7.68;;;29.40;55.40;;;;;;5081484;28;20135;-69
2021/08/19 06:25:55;;;;;;;23.33;7.25;;;28.90;52.60;;;;;;5083337;28;20036;-67
2021/08/19 06:28:24;;;;;;;18.65;6.60;;;29.30;66.30;;;;;;5088359;28;20024;-67
2021/08/19 06:30:53;;;;;;;21.27;6.82;;;29.30;69.00;;;;;;5085686;28;20048;-68
2021/08/19 06:33:20;;;;;;;15.85;6.78;;;29.00;64.60;;;;;;5085924;28;20587;-69
2021/08/19 06:35:47;;;;;;;19.83;6.50;;;28.90;53.50;;;;;;5087689;28;20077;-66
2021/08/19 06:38:14;;;;;;;23.73;6.70;;;28.90;54.00;;;;;;5082252;28;20545;-68
2021/08/19 06:40:42;;;;;;;20.60;6.35;;;28.80;59.70;;;;;;5081229;28;20084;-69
2021/08/19 06:43:08;;;;;;;16.92;6.88;;;;;;;;;;5084255;28;20097;-68
2021/08/19 06:45:35;;;;;;;17.65;7.00;;;28.70;80.00;;;;;;5083218;28;20025;-68
2021/08/19 06:48:02;;;;;;;15.82;6.40;;;28.70;70.00;;;;;;5080797;28;20077;-68
2021/08/19 06:50:28;;;;;;;17.25;6.88;;;28.60;78.40;;;;;;5082683;28;20050;-69
2021/08/19 06:52:55;;;;;;;22.27;6.65;;;27.50;59.00;;;;;;5081438;28;20072;-67
2021/08/19 06:55:21;;;;;;;16.77;6.40;;;28.30;84.70;;;;;;5080415;28;20039;-68
2021/08/19 06:57:48;;;;;;;22.17;6.90;;;28.60;53.90;;;;;;5082996;28;20126;-68
2021/08/19 07:00:15;;;;;;;19.52;6.80;;;28.60;54.00;;;;;;5085982;28;20515;-69
2021/08/19 07:02:42;;;;;;;18.02;7.18;;;28.30;67.40;;;;;;5079186;28;20077;-69
2021/08/19 07:05:08;;;;;;;13.70;6.75;;;28.60;80.00;;;;;;5085662;28;20385;-69
2021/08/19 07:07:35;;;;;;;12.77;6.90;;;28.60;56.60;;;;;;5082874;28;20100;-68
2021/08/19 07:10:03;;;;;;;12.60;6.35;;;28.50;54.30;;;;;;5083785;28;20096;-68
2021/08/19 07:12:30;;;;;;;13.02;6.70;;;28.40;54.80;;;;;;5079459;28;20069;-69
2021/08/19 07:14:56;;;;;;;12.32;6.65;;;28.30;54.50;;;;;;5080467;28;20155;-69
2021/08/19 07:17:23;;;;;;;12.65;6.15;;;28.30;93.80;;;;;;5085160;28;20162;-69
2021/08/19 07:19:50;;;;;;;13.10;6.47;;;28.30;74.00;;;;;;5085631;28;20051;-69
2021/08/19 07:22:17;;;;;;;15.60;6.05;;;28.40;54.60;;;;;;5088034;28;20065;-68
2021/08/19 07:24:43;;;;;;;12.13;6.70;;;28.40;54.70;;;;;;5086201;28;20077;-68
2021/08/19 07:27:11;;;;;;;15.63;6.45;;;28.40;54.70;;;;;;5082856;28;20071;-69
2021/08/19 07:29:37;;;;;;;20.55;6.88;;;28.30;54.70;;;;;;5084035;28;20125;-68
2021/08/19 07:32:04;;;;;;;11.30;5.78;;;28.50;96.20;;;;;;5082495;28;20149;-68
2021/08/19 07:34:31;;;;;;;14.43;6.82;;;28.30;74.90;;;;;;5080637;28;20066;-68
2021/08/19 07:36:57;;;;;;;15.23;6.70;;;28.40;54.80;;;;;;5081245;28;20080;-68
2021/08/19 07:39:24;;;;;;;16.13;6.45;;;28.30;55.00;;;;;;5084289;28;20076;-67
2021/08/19 07:41:51;;;;;;;13.45;6.22;;;28.30;54.80;;;;;;5098824;28;20084;-68
2021/08/19 07:44:18;;;;;;;14.85;6.75;;;28.30;54.70;;;;;;5083467;28;20155;-68
2021/08/19 07:46:44;;;;;;;12.13;6.38;;;28.20;55.20;;;;;;5083960;28;20150;-69
2021/08/19 07:49:13;;;;;;;12.77;6.20;;;28.20;55.20;;;;;;5082574;28;20518;-66
2021/08/19 07:51:40;;;;;;;14.77;6.20;;;28.20;54.90;;;;;;5080188;28;20084;-68
2021/08/19 07:54:06;;;;;;;10.73;6.18;;;28.30;55.10;;;;;;5084640;28;20069;-68
2021/08/19 07:56:33;;;;;;;16.55;6.43;;;28.20;55.00;;;;;;5085219;28;20537;-68
2021/08/19 07:58:59;;;;;;;17.60;6.22;;;28.20;55.20;;;;;;5081627;28;20130;-68
2021/08/19 08:01:26;;;;;;;14.00;6.80;;;28.20;55.30;;;;;;5080881;28;20068;-67
2021/08/19 08:03:53;;;;;;;11.00;6.15;;;28.20;55.50;;;;;;5079576;28;20158;-68
2021/08/19 08:06:19;;;;;;;13.52;6.30;;;28.30;55.30;;;;;;5082018;28;20076;-68
2021/08/19 08:08:46;;;;;;;13.75;6.10;;;28.20;55.20;;;;;;5079385;28;20135;-68
2021/08/19 08:11:12;;;;;;;12.38;5.50;;;28.20;55.10;;;;;;5086143;28;20064;-68
2021/08/19 08:13:39;;;;;;;8.95;5.60;;;28.10;55.30;;;;;;5082588;28;20073;-68
2021/08/19 08:16:06;;;;;;;12.23;6.30;;;28.10;55.90;;;;;;5079584;28;20219;-69
2021/08/19 08:18:32;;;;;;;8.95;5.63;;;28.10;55.40;;;;;;5083730;28;20199;-68
2021/08/19 08:21:01;;;;;;;11.05;5.47;;;28.00;55.60;;;;;;5079167;28;20072;-68
2021/08/19 08:23:32;;;;;;;12.23;5.75;;;28.00;56.00;;;;;;5084735;28;20080;-68
2021/08/19 08:26:00;;;;;;;9.85;5.40;;;28.10;55.60;;;;;;5082232;28;20421;-68
2021/08/19 08:28:28;;;;;;;15.40;5.85;;;28.00;55.70;;;;;;5085380;28;20470;-68
2021/08/19 08:30:54;;;;;;;16.63;5.78;;;27.90;55.70;;;;;;5082048;28;20067;-68
2021/08/19 08:33:21;;;;;;;16.83;5.85;;;27.80;55.70;;;;;;5083292;28;20068;-68
2021/08/19 08:35:48;;;;;;;13.65;5.13;;;27.80;55.80;;;;;;5080881;28;20114;-68
2021/08/19 08:38:18;;;;;;;16.35;5.57;;;27.80;56.10;;;;;;5081605;28;20432;-68
2021/08/19 08:40:47;;;;;;;13.30;5.40;;;27.60;55.30;;;;;;5083524;28;20077;-68
2021/08/19 08:43:16;;;;;;;14.18;5.45;;;27.60;55.80;;;;;;5079602;28;20088;-68
2021/08/19 08:45:47;;;;;;;8.50;4.95;;;27.60;55.60;;;;;;5083537;28;20130;-68
2021/08/19 08:48:16;;;;;;;10.77;5.60;;;27.60;56.00;;;;;;5083902;28;20103;-68
2021/08/19 08:50:47;;;;;;;10.15;5.13;;;27.60;55.40;;;;;;5083372;28;20518;-69
2021/08/19 08:53:15;;;;;;;12.07;5.03;;;27.60;55.40;;;;;;5083747;28;20081;-68
2021/08/19 08:55:43;;;;;;;12.90;6.03;;;27.60;55.80;;;;;;5082733;28;20156;-69
2021/08/19 08:58:10;;;;;;;19.92;5.20;;;27.60;55.50;;;;;;5081814;28;20180;-69
2021/08/19 09:00:46;;;;;;;13.15;4.95;;;27.70;83.10;;;;;;5083038;28;20095;-68
2021/08/19 09:03:14;;;;;;;10.07;5.57;;;27.60;55.20;;;;;;5085268;28;20090;-68
2021/08/19 09:05:52;;;;;;;20.13;5.68;;;27.50;55.60;;;;;;5083695;28;20122;-69
2021/08/19 09:08:21;;;;;;;12.70;5.30;;;27.40;56.00;;;;;;5081196;28;20072;-68
2021/08/19 09:10:49;;;;;;;9.80;5.13;;;27.40;55.80;;;;;;5079920;28;20077;-68
2021/08/19 09:13:23;;;;;;;13.30;5.35;;;27.30;55.90;;;;;;5083145;28;20108;-67
2021/08/19 09:15:51;;;;;;;8.40;4.95;;;27.30;56.00;;;;;;5081213;28;20204;-68
2021/08/19 09:18:32;;;;;;;10.27;5.25;;;27.20;56.00;;;;;;5083436;28;20128;-68
2021/08/19 09:20:59;;;;;;;10.27;5.40;;;27.20;56.30;;;;;;5083981;28;20079;-68
2021/08/19 09:23:26;;;;;;;9.70;5.25;;;27.20;55.30;;;;;;5083840;28;20590;-67
2021/08/19 09:25:52;;;;;;;15.15;5.07;;;27.10;66.30;;;;;;5089934;28;20012;-68
2021/08/19 09:28:22;;;;;;;11.18;5.18;;;27.20;55.30;;;;;;5086547;28;20065;-67
2021/08/19 09:30:55;;;;;;;10.07;5.35;;;27.20;55.80;;;;;;5084970;28;20598;-68
2021/08/19 09:33:28;;;;;;;11.45;5.30;;;27.20;55.80;;;;;;5087560;28;20155;-67
2021/08/19 09:35:57;;;;;;;11.88;5.10;;;27.20;55.90;;;;;;5086100;28;20643;-69
2021/08/19 09:38:34;;;;;;;13.65;5.55;;;27.20;55.70;;;;;;5086227;28;20132;-68
2021/08/19 09:41:13;;;;;;;9.95;5.22;;;27.10;56.10;;;;;;5085219;28;20160;-68
2021/08/19 09:43:44;;;;;;;10.65;5.35;;;27.20;55.80;;;;;;5083307;28;20170;-67
2021/08/19 09:46:14;;;;;;;15.43;5.88;;;27.20;55.90;;;;;;5088166;28;20061;-66
2021/08/19 09:48:42;;;;;;;14.88;4.75;;;27.10;55.90;;;;;;5085723;28;20068;-67
2021/08/19 09:51:12;;;;;;;13.45;5.45;;;27.10;56.00;;;;;;5079366;28;21023;-66
2021/08/19 09:53:44;;;;;;;10.80;5.38;;;27.10;56.20;;;;;;5080616;28;20093;-67
2021/08/19 09:56:13;;;;;;;10.18;5.18;;;27.10;56.20;;;;;;5086377;28;20072;-68
2021/08/19 09:58:40;;;;;;;17.55;5.95;;;27.10;56.10;;;;;;5087009;28;20174;-66
2021/08/19 10:01:07;;;;;;;8.60;4.82;;;27.10;56.00;;;;;;5084727;28;20079;-68
2021/08/19 10:03:34;;;;;;;11.57;4.93;;;27.10;55.90;;;;;;5085547;28;20121;-68
2021/08/19 10:06:02;;;;;;;8.73;4.88;;;27.10;55.80;;;;;;5084551;28;20065;-66
2021/08/19 10:08:28;;;;;;;9.55;5.05;;;27.10;55.80;;;;;;5081692;28;20079;-68
2021/08/19 10:10:56;;;;;;;12.18;5.00;;;27.10;55.70;;;;;;5082449;28;20201;-68
2021/08/19 10:13:23;;;;;;;10.73;4.70;;;27.10;55.50;;;;;;5085894;28;20073;-67
2021/08/19 10:15:51;;;;;;;10.05;4.85;;;27.20;55.70;;;;;;5086541;28;20112;-68
2021/08/19 10:18:24;;;;;;;10.27;4.65;;;27.10;55.40;;;;;;5083082;28;20508;-68
2021/08/19 10:20:58;;;;;;;11.10;5.30;;;27.10;55.90;;;;;;5087646;28;20151;-68
2021/08/19 10:23:25;;;;;;;8.38;4.93;;;27.20;56.00;;;;;;5085739;28;20079;-68
2021/08/19 10:26:07;;;;;;;12.27;5.55;;;27.10;56.00;;;;;;5086587;28;20525;-67
2021/08/19 10:28:55;;;;;;;10.68;4.80;;;27.10;56.50;;;;;;5083315;28;20627;-68
2021/08/19 10:31:46;;;;;;;14.23;5.22;;;27.10;56.30;;;;;;5083534;28;20076;-68
2021/08/19 10:34:18;;;;;;;11.15;4.80;;;27.10;56.90;;;;;;5074423;28;20479;-68
2021/08/19 10:36:45;;;;;;;10.70;4.68;;;27.00;56.90;;;;;;5084658;28;20103;-67
2021/08/19 10:39:23;;;;;;;10.75;5.35;;;27.00;57.00;;;;;;5083323;28;20107;-67
2021/08/19 10:41:54;;;;;;;12.85;5.15;;;27.00;57.00;;;;;;5084314;28;20073;-67
2021/08/19 10:44:33;;;;;;;11.25;5.63;;;27.00;57.10;;;;;;5101161;28;20076;-67
2021/08/19 10:47:00;;;;;;;10.13;5.07;;;27.00;57.40;;;;;;5083872;28;20096;-67
2021/08/19 10:49:31;;;;;;;12.52;5.38;;;26.90;57.10;;;;;;5083929;28;20080;-67
2021/08/19 10:52:23;;;;;;;10.50;5.53;;;26.80;57.60;;;;;;5083674;28;20069;-66
2021/08/19 10:54:50;;;;;;;9.65;5.70;;;26.90;57.60;;;;;;5098711;28;20079;-67
2021/08/19 10:57:27;;;;;;;9.45;5.50;;;26.80;58.00;;;;;;5084046;28;20093;-67
2021/08/19 11:00:07;;;;;;;13.80;5.43;;;26.80;57.80;;;;;;5084067;28;20096;-67
2021/08/19 11:02:54;;;;;;;10.43;5.00;;;26.90;58.10;;;;;;5081070;28;20073;-67
2021/08/19 11:05:21;;;;;;;11.02;5.78;;;27.00;57.60;;;;;;5080708;28;20069;-67
2021/08/19 11:07:58;;;;;;;12.48;5.93;;;26.90;57.50;;;;;;5085572;28;20081;-67
2021/08/19 11:10:28;;;;;;;13.27;5.60;;;27.00;57.50;;;;;;5084679;28;20076;-67
2021/08/19 11:13:05;;;;;;;11.55;5.65;;;27.00;57.60;;;;;;5083587;28;20080;-67
2021/08/19 11:15:32;;;;;;;;;;;27.00;57.80;;;;;;5082502;28;20104;-67
2021/08/19 11:17:59;;;;;;;12.23;5.65;;;27.00;57.50;;;;;;5085348;28;19983;-67
2021/08/19 11:20:30;;;;;;;15.57;5.75;;;27.00;57.30;;;;;;5082996;28;20520;-67
2021/08/19 11:23:11;;;;;;;13.10;5.63;;;27.00;57.50;;;;;;5086301;28;20068;-67
2021/08/19 11:25:43;;;;;;;11.15;5.80;;;26.90;57.50;;;;;;5082160;28;20072;-68
2021/08/19 11:28:15;;;;;;;11.45;5.90;;;26.90;57.30;;;;;;5083992;28;20080;-67
2021/08/19 11:30:50;;;;;;;10.30;4.88;;;26.90;57.20;;;;;;5115643;27;20079;-67
2021/08/19 11:33:21;;;;;;;11.75;6.10;;;26.90;57.40;;;;;;5084145;28;20068;-68
2021/08/19 11:35:51;;;;;;;11.02;5.18;;;26.90;57.30;;;;;;5082720;28;20068;-68
2021/08/19 11:38:21;;;;;;;12.82;5.93;;;27.00;57.20;;;;;;5080014;28;20409;-67
2021/08/19 11:40:50;;;;;;;11.50;5.40;;;27.00;57.10;;;;;;5080039;28;20069;-67
2021/08/19 11:43:32;;;;;;;13.65;5.47;;;27.10;57.00;;;;;;5081728;28;20079;-68
2021/08/19 11:46:05;;;;;;;11.30;5.53;;;27.00;56.90;;;;;;5084856;28;20076;-68
2021/08/19 11:48:32;;;;;;;13.82;5.50;;;27.00;57.30;;;;;;5082478;28;20118;-68
2021/08/19 11:51:02;;;;;;;10.88;5.43;;;26.90;56.80;;;;;;5082127;28;20587;-68
2021/08/19 11:53:28;;;;;;;12.70;5.03;;;26.90;57.10;;;;;;5084731;28;20077;-67
2021/08/19 11:55:55;;;;;;;8.25;5.30;;;26.80;57.00;;;;;;5083147;28;20073;-68
2021/08/19 11:58:26;;;;;;;9.80;5.22;;;26.70;57.20;;;;;;5089647;28;20093;-67
2021/08/19 12:01:07;;;;;;;14.13;5.25;;;26.70;57.80;;;;;;5081788;28;20076;-67
2021/08/19 12:03:45;;;;;;;10.77;5.45;;;26.70;57.60;;;;;;5079910;28;20552;-67
2021/08/19 12:06:13;;;;;;;13.00;5.65;;;26.70;57.70;;;;;;5085401;28;20078;-67
2021/08/19 12:08:55;;;;;;;11.43;5.78;;;26.80;57.70;;;;;;5084719;28;20099;-67
2021/08/19 12:11:29;;;;;;;10.20;5.30;;;26.70;57.50;;;;;;5084629;28;20077;-67
2021/08/19 12:13:58;;;;;;;10.23;5.53;;;26.60;57.50;;;;;;5081969;28;20125;-68
2021/08/19 12:16:28;;;;;;;9.10;5.32;;;26.70;57.30;;;;;;5086260;28;20106;-67
2021/08/19 12:19:10;;;;;;;14.02;6.38;;;26.60;57.50;;;;;;5079614;28;20100;-67
2021/08/19 12:21:57;;;;;;;11.48;6.15;;;26.60;57.50;;;;;;5083840;28;20117;-67
2021/08/19 12:24:31;;;;;;;13.75;5.60;;;26.50;57.90;;;;;;5083771;28;20083;-67
2021/08/19 12:27:19;;;;;;;13.30;5.72;;;26.50;57.90;;;;;;5085696;28;20593;-67
2021/08/19 12:29:52;;;;;;;16.83;6.53;;;26.50;58.20;;;;;;5084718;28;20065;-67
2021/08/19 12:32:35;;;;;;;11.00;5.70;;;26.50;57.90;;;;;;5081006;28;20077;-67
2021/08/19 12:35:22;;;;;;;13.15;5.65;;;26.50;58.30;;;;;;5079919;28;20068;-68
2021/08/19 12:37:55;;;;;;;10.60;5.40;;;26.50;58.20;;;;;;5085433;28;20476;-68
2021/08/19 12:40:28;;;;;;;13.98;5.47;;;26.40;57.90;;;;;;5110632;28;20073;-68
2021/08/19 12:43:11;;;;;;;14.32;5.60;;;26.40;58.30;;;;;;5077962;28;20077;-67
2021/08/19 12:45:39;;;;;;;11.50;5.22;;;26.40;58.30;;;;;;5081010;28;20064;-67
2021/08/19 12:48:10;;;;;;;10.45;5.50;;;26.40;58.50;;;;;;5084871;28;20104;-66